createdAt,value
2023-04-08T00:00:42.097Z,4.32
2023-04-08T00:02:44.839Z,5.70
2023-04-08T00:04:47.618Z,11.85
2023-04-08T00:06:50.630Z,4.78
2023-04-08T00:08:53.424Z,12.05
2023-04-08T00:10:56.251Z,6.78
2023-04-08T00:12:58.959Z,5.13
2023-04-08T00:15:01.615Z,4.85
2023-04-08T00:17:06.705Z,5.88
2023-04-08T00:19:09.445Z,4.68
2023-04-08T00:21:12.172Z,7.38
2023-04-08T00:23:14.753Z,8.52
2023-04-08T00:25:17.430Z,4.30
2023-04-08T00:27:20.014Z,2.17
2023-04-08T00:29:22.705Z,4.32
2023-04-08T00:31:25.810Z,4.82
2023-04-08T00:33:28.892Z,5.65
2023-04-08T00:35:31.718Z,7.82
2023-04-08T00:37:35.216Z,2.85
2023-04-08T00:39:38.399Z,4.60
2023-04-08T00:41:41.179Z,4.70
2023-04-08T00:43:43.790Z,4.07
2023-04-08T00:45:46.876Z,4.97
2023-04-08T00:47:52.966Z,8.93
2023-04-08T00:49:55.900Z,4.32
2023-04-08T00:51:59.919Z,6.85
2023-04-08T00:54:05.063Z,6.53
2023-04-08T00:56:07.722Z,5.45
2023-04-08T00:58:10.652Z,3.45
2023-04-08T01:00:14.602Z,12.10
2023-04-08T01:02:36.494Z,18.45
2023-04-08T01:04:51.521Z,8.38
2023-04-08T01:07:04.364Z,7.70
2023-04-08T01:09:07.611Z,8.93
2023-04-08T01:11:13.432Z,6.20
2023-04-08T01:13:19.180Z,6.45
2023-04-08T01:15:22.782Z,6.70
2023-04-08T01:17:25.684Z,5.63
2023-04-08T01:19:33.346Z,5.43
2023-04-08T01:21:38.146Z,8.23
2023-04-08T01:23:49.680Z,11.15
2023-04-08T01:25:54.381Z,8.10
2023-04-08T01:27:59.321Z,4.22
2023-04-08T01:30:04.959Z,3.65
2023-04-08T01:32:08.609Z,3.80
2023-04-08T01:34:14.058Z,5.18
2023-04-08T01:36:17.151Z,3.83
2023-04-08T01:38:21.923Z,3.80
2023-04-08T01:40:24.812Z,3.67
2023-04-08T01:42:30.313Z,3.95
2023-04-08T01:44:33.775Z,6.35
2023-04-08T01:46:37.263Z,8.98
2023-04-08T01:48:40.660Z,9.20
2023-04-08T01:50:45.178Z,4.63
2023-04-08T01:52:49.873Z,4.70
2023-04-08T01:54:53.372Z,7.32
2023-04-08T01:56:57.862Z,10.85
2023-04-08T01:59:02.401Z,5.60
2023-04-08T02:01:11.233Z,7.05
2023-04-08T02:03:18.083Z,7.47
2023-04-08T02:05:21.207Z,3.92
2023-04-08T02:07:24.341Z,7.85
2023-04-08T02:09:27.543Z,4.65
2023-04-08T02:11:30.236Z,5.90
2023-04-08T02:13:33.490Z,4.47
2023-04-08T02:16:12.907Z,8.15
2023-04-08T02:18:25.219Z,3.67
2023-04-08T02:20:37.966Z,5.47
2023-04-08T02:22:48.092Z,4.88
2023-04-08T02:24:51.595Z,6.88
2023-04-08T02:26:56.805Z,3.30
2023-04-08T02:29:00.504Z,4.18
2023-04-08T02:31:06.024Z,6.50
2023-04-08T02:33:09.518Z,3.00
2023-04-08T02:35:13.485Z,5.22
2023-04-08T02:37:16.481Z,7.63
2023-04-08T02:39:19.161Z,4.18
2023-04-08T02:41:21.800Z,6.72
2023-04-08T02:43:32.531Z,8.32
2023-04-08T02:45:41.116Z,6.93
2023-04-08T02:47:43.803Z,4.97
2023-04-08T02:49:46.532Z,5.70
2023-04-08T02:51:49.105Z,3.22
2023-04-08T02:53:51.666Z,5.45
2023-04-08T02:55:54.316Z,9.07
2023-04-08T02:57:56.960Z,4.22
2023-04-08T02:59:59.637Z,6.00
2023-04-08T03:02:02.377Z,3.75
2023-04-08T03:04:05.330Z,3.85
2023-04-08T03:06:07.936Z,3.00
2023-04-08T03:08:10.830Z,4.28
2023-04-08T03:10:13.489Z,4.47
2023-04-08T03:12:16.113Z,5.80
2023-04-08T03:14:18.779Z,6.53
2023-04-08T03:16:21.683Z,6.32
2023-04-08T03:18:24.732Z,6.05
2023-04-08T03:20:27.441Z,2.40
2023-04-08T03:22:30.078Z,5.90
2023-04-08T03:24:32.655Z,8.48
2023-04-08T03:26:35.459Z,5.60
2023-04-08T03:28:38.172Z,9.10
2023-04-08T03:30:40.901Z,3.45
2023-04-08T03:32:43.630Z,3.58
2023-04-08T03:34:46.570Z,5.07
2023-04-08T03:36:49.200Z,6.28
2023-04-08T03:38:51.958Z,7.03
2023-04-08T03:40:54.970Z,5.65
2023-04-08T03:42:57.654Z,13.75
2023-04-08T03:45:00.277Z,5.68
2023-04-08T03:47:02.896Z,17.00
2023-04-08T03:49:05.561Z,6.07
2023-04-08T03:51:08.134Z,7.75
2023-04-08T03:53:12.896Z,5.95
2023-04-08T03:55:15.581Z,3.17
2023-04-08T03:57:18.202Z,7.70
2023-04-08T03:59:20.845Z,4.60
2023-04-08T04:01:23.500Z,6.85
2023-04-08T04:03:26.610Z,4.80
2023-04-08T04:05:29.520Z,3.13
2023-04-08T04:07:32.161Z,7.72
2023-04-08T04:09:34.961Z,3.53
2023-04-08T04:11:38.030Z,7.35
2023-04-08T04:13:40.728Z,6.72
2023-04-08T04:15:43.370Z,5.40
2023-04-08T04:17:50.441Z,4.95
2023-04-08T04:19:53.196Z,5.85
2023-04-08T04:21:56.005Z,6.03
2023-04-08T04:23:58.880Z,3.38
2023-04-08T04:26:01.547Z,4.80
2023-04-08T04:28:04.309Z,4.47
2023-04-08T04:30:07.741Z,6.85
2023-04-08T04:32:10.348Z,5.38
2023-04-08T04:34:13.003Z,4.95
2023-04-08T04:36:16.008Z,6.28
2023-04-08T04:38:18.608Z,10.65
2023-04-08T04:40:21.603Z,6.30
2023-04-08T04:42:24.270Z,6.22
2023-04-08T04:44:27.423Z,5.15
2023-04-08T04:46:30.001Z,2.92
2023-04-08T04:48:33.331Z,4.00
2023-04-08T04:50:35.848Z,5.75
2023-04-08T04:52:38.551Z,5.43
2023-04-08T04:54:41.476Z,9.38
2023-04-08T04:56:44.078Z,5.70
2023-04-08T04:58:46.789Z,5.25
2023-04-08T05:00:49.392Z,4.55
2023-04-08T05:02:52.123Z,6.60
2023-04-08T05:04:55.975Z,4.18
2023-04-08T05:07:00.710Z,7.55
2023-04-08T05:09:03.424Z,8.55
2023-04-08T05:11:10.538Z,9.00
2023-04-08T05:13:13.409Z,7.72
2023-04-08T05:15:16.280Z,10.88
2023-04-08T05:17:18.955Z,8.57
2023-04-08T05:19:21.566Z,9.75
2023-04-08T05:21:24.376Z,11.18
2023-04-08T05:23:27.088Z,3.53
2023-04-08T05:25:30.922Z,7.82
2023-04-08T05:27:33.645Z,6.47
2023-04-08T05:29:36.290Z,6.97
2023-04-08T05:31:38.881Z,8.32
2023-04-08T05:33:41.498Z,8.48
2023-04-08T05:35:44.284Z,7.70
2023-04-08T05:37:46.898Z,4.28
2023-04-08T05:39:49.545Z,6.10
2023-04-08T05:41:52.181Z,9.70
2023-04-08T05:43:54.792Z,6.50
2023-04-08T05:45:57.393Z,6.38
2023-04-08T05:48:00.078Z,4.60
2023-04-08T05:50:02.983Z,8.55
2023-04-08T05:52:07.061Z,8.45
2023-04-08T05:54:09.631Z,9.35
2023-04-08T05:56:12.245Z,3.67
2023-04-08T05:58:14.889Z,3.83
2023-04-08T06:00:17.725Z,3.03
2023-04-08T06:02:20.485Z,4.70
2023-04-08T06:04:23.330Z,6.38
2023-04-08T06:06:26.270Z,3.55
2023-04-08T06:08:28.936Z,4.28
2023-04-08T06:10:31.777Z,9.25
2023-04-08T06:12:41.248Z,5.32
2023-04-08T06:14:43.972Z,3.45
2023-04-08T06:16:46.712Z,1.77
2023-04-08T06:18:49.788Z,4.45
2023-04-08T06:20:52.594Z,4.20
2023-04-08T06:22:55.420Z,4.22
2023-04-08T06:24:58.135Z,2.95
2023-04-08T06:27:00.748Z,3.42
2023-04-08T06:29:04.038Z,4.25
2023-04-08T06:31:06.782Z,3.95
2023-04-08T06:33:09.673Z,1.38
2023-04-08T06:35:12.319Z,3.60
2023-04-08T06:37:15.293Z,7.30
2023-04-08T06:39:19.558Z,3.92
2023-04-08T06:41:22.206Z,3.05
2023-04-08T06:43:24.924Z,3.40
2023-04-08T06:45:28.911Z,6.28
2023-04-08T06:47:31.822Z,8.73
2023-04-08T06:49:34.487Z,7.25
2023-04-08T06:51:37.432Z,7.63
2023-04-08T06:53:40.158Z,2.88
2023-04-08T06:55:43.038Z,9.20
2023-04-08T06:57:45.712Z,5.38
2023-04-08T06:59:48.488Z,3.33
2023-04-08T07:01:51.609Z,6.25
2023-04-08T07:03:54.464Z,5.22
2023-04-08T07:05:57.162Z,5.65
2023-04-08T07:07:59.882Z,4.13
2023-04-08T07:10:02.440Z,10.48
2023-04-08T07:12:06.327Z,4.65
2023-04-08T07:14:08.946Z,10.55
2023-04-08T07:16:11.778Z,4.40
2023-04-08T07:18:14.649Z,7.57
2023-04-08T07:20:17.422Z,8.68
2023-04-08T07:22:20.050Z,5.45
2023-04-08T07:24:22.694Z,5.88
2023-04-08T07:26:25.293Z,2.25
2023-04-08T07:28:28.020Z,5.55
2023-04-08T07:30:30.822Z,5.57
2023-04-08T07:32:34.138Z,5.50
2023-04-08T07:34:37.033Z,4.57
2023-04-08T07:36:40.973Z,5.40
2023-04-08T07:38:43.605Z,4.00
2023-04-08T07:40:46.194Z,4.95
2023-04-08T07:42:49.489Z,5.45
2023-04-08T07:44:52.586Z,6.78
2023-04-08T07:46:55.204Z,5.40
2023-04-08T07:48:58.275Z,4.85
2023-04-08T07:51:11.148Z,5.18
2023-04-08T07:53:14.259Z,7.32
2023-04-08T07:55:17.004Z,9.10
2023-04-08T07:57:19.845Z,9.02
2023-04-08T07:59:22.594Z,5.70
2023-04-08T08:01:25.785Z,5.20
2023-04-08T08:03:28.742Z,2.75
2023-04-08T08:05:32.179Z,2.28
2023-04-08T08:07:34.796Z,5.95
2023-04-08T08:09:37.471Z,9.80
2023-04-08T08:11:40.271Z,7.70
2023-04-08T08:13:43.050Z,3.80
2023-04-08T08:15:45.711Z,4.40
2023-04-08T08:17:48.377Z,2.67
2023-04-08T08:19:51.347Z,5.53
2023-04-08T08:21:53.994Z,2.45
2023-04-08T08:23:57.049Z,10.70
2023-04-08T08:26:01.303Z,7.47
2023-04-08T08:28:04.058Z,5.55
2023-04-08T08:30:07.510Z,4.75
2023-04-08T08:32:10.116Z,4.35
2023-04-08T08:34:12.744Z,5.13
2023-04-08T08:36:15.635Z,3.95
2023-04-08T08:38:18.545Z,6.63
2023-04-08T08:40:21.170Z,6.35
2023-04-08T08:42:25.810Z,6.47
2023-04-08T08:44:30.590Z,5.80
2023-04-08T08:46:33.427Z,5.15
2023-04-08T08:48:38.872Z,7.53
2023-04-08T08:50:41.533Z,5.25
2023-04-08T08:52:53.531Z,4.88
2023-04-08T08:54:59.947Z,3.15
2023-04-08T08:57:02.668Z,3.25
2023-04-08T08:59:05.445Z,7.55
2023-04-08T09:01:30.188Z,2.60
2023-04-08T09:03:33.235Z,4.20
2023-04-08T09:05:53.485Z,4.25
2023-04-08T09:07:56.149Z,6.53
2023-04-08T09:10:00.165Z,2.78
2023-04-08T09:12:06.414Z,4.53
2023-04-08T09:14:24.591Z,7.38
2023-04-08T09:16:28.460Z,4.95
2023-04-08T09:18:32.502Z,4.03
2023-04-08T09:20:35.153Z,5.90
2023-04-08T09:23:04.062Z,11.90
2023-04-08T09:25:26.912Z,3.83
2023-04-08T09:27:36.533Z,5.50
2023-04-08T09:29:40.064Z,5.75
2023-04-08T09:31:43.145Z,10.88
2023-04-08T09:33:46.004Z,4.57
2023-04-08T09:35:48.960Z,5.75
2023-04-08T09:37:52.037Z,4.22
2023-04-08T09:39:54.646Z,10.75
2023-04-08T09:41:59.085Z,12.98
2023-04-08T09:44:04.795Z,4.47
2023-04-08T09:46:12.118Z,7.57
2023-04-08T09:48:22.012Z,8.63
2023-04-08T09:50:31.862Z,4.88
2023-04-08T09:52:43.973Z,4.63
2023-04-08T09:54:59.691Z,10.05
2023-04-08T09:57:10.130Z,8.63
2023-04-08T09:59:17.657Z,13.43
2023-04-08T10:01:27.157Z,12.00
2023-04-08T10:03:37.573Z,11.55
2023-04-08T10:05:44.004Z,4.07
2023-04-08T10:07:46.648Z,7.18
2023-04-08T10:09:49.635Z,7.68
2023-04-08T10:11:53.893Z,7.43
2023-04-08T10:13:56.833Z,5.22
2023-04-08T10:16:19.296Z,4.75
2023-04-08T10:18:22.390Z,6.70
2023-04-08T10:20:37.096Z,8.60
2023-04-08T10:22:49.510Z,8.75
2023-04-08T10:25:17.205Z,8.82
2023-04-08T10:27:43.467Z,5.32
2023-04-08T10:29:46.842Z,5.78
2023-04-08T10:31:53.460Z,3.13
2023-04-08T10:33:56.519Z,8.23
2023-04-08T10:36:12.561Z,9.88
2023-04-08T10:38:16.384Z,2.25
2023-04-08T10:40:21.860Z,5.30
2023-04-08T10:42:28.062Z,2.25
2023-04-08T10:44:30.790Z,4.53
2023-04-08T10:46:39.428Z,3.88
2023-04-08T10:48:42.141Z,7.45
2023-04-08T10:50:57.022Z,4.45
2023-04-08T10:52:59.809Z,3.08
2023-04-08T10:55:03.303Z,8.27
2023-04-08T10:57:07.175Z,5.28
2023-04-08T10:59:11.315Z,5.05
2023-04-08T11:01:14.156Z,9.27
2023-04-08T11:03:17.109Z,5.47
2023-04-08T11:05:23.648Z,7.72
2023-04-08T11:07:27.411Z,4.18
2023-04-08T11:09:30.116Z,7.65
2023-04-08T11:11:32.992Z,7.65
2023-04-08T11:13:52.576Z,5.72
2023-04-08T11:16:00.158Z,72.90
2023-04-08T11:18:06.645Z,24.05
2023-04-08T11:20:10.048Z,138.65
2023-04-08T11:22:13.694Z,11.15
2023-04-08T11:24:16.898Z,8.07
2023-04-08T11:26:20.316Z,8.75
2023-04-08T11:28:23.653Z,10.60
2023-04-08T11:30:26.896Z,12.63
2023-04-08T11:32:30.517Z,12.50
2023-04-08T11:34:33.220Z,5.45
2023-04-08T11:36:37.125Z,11.80
2023-04-08T11:38:43.727Z,179.52
2023-04-08T11:40:59.727Z,19.90
2023-04-08T11:43:13.052Z,9.23
2023-04-08T11:45:16.983Z,500.38
2023-04-08T11:47:19.821Z,983.08
2023-04-08T11:49:22.481Z,122.05
2023-04-08T11:51:25.403Z,200.05
2023-04-08T11:53:28.831Z,421.73
2023-04-08T11:55:33.615Z,506.05
2023-04-08T11:57:36.641Z,441.40
2023-04-08T11:59:39.338Z,15.63
2023-04-08T12:01:42.002Z,11.82
2023-04-08T12:03:55.639Z,239.18
2023-04-08T12:05:59.708Z,604.08
2023-04-08T12:08:02.682Z,310.90
2023-04-08T12:10:06.091Z,120.93
2023-04-08T12:12:08.743Z,163.77
2023-04-08T12:14:11.498Z,29.20
2023-04-08T12:16:14.505Z,12.75
2023-04-08T12:18:17.252Z,16.13
2023-04-08T12:20:20.094Z,47.47
2023-04-08T12:22:23.603Z,22.25
2023-04-08T12:24:26.951Z,65.47
2023-04-08T12:26:29.796Z,57.03
2023-04-08T12:28:32.452Z,17.83
2023-04-08T12:30:35.157Z,5.38
2023-04-08T12:32:38.262Z,8.88
2023-04-08T12:34:41.333Z,11.60
2023-04-08T12:36:45.065Z,4.93
2023-04-08T12:38:47.809Z,5.53
2023-04-08T12:40:50.574Z,14.10
2023-04-08T12:42:53.333Z,9.88
2023-04-08T12:44:56.633Z,7.55
2023-04-08T12:46:59.451Z,16.27
2023-04-08T12:49:04.877Z,8.07
2023-04-08T12:51:10.481Z,7.55
2023-04-08T12:53:13.298Z,9.27
2023-04-08T12:55:16.493Z,9.40
2023-04-08T12:57:19.180Z,16.25
2023-04-08T12:59:21.972Z,6.68
2023-04-08T13:01:24.891Z,9.90
2023-04-08T13:03:30.623Z,7.80
2023-04-08T13:07:42.815Z,12.88
2023-04-08T13:09:46.576Z,8.05
2023-04-08T13:11:49.394Z,6.35
2023-04-08T13:13:52.358Z,5.88
2023-04-08T13:15:55.491Z,8.00
2023-04-08T13:17:58.236Z,6.95
2023-04-08T13:20:01.217Z,15.07
2023-04-08T13:22:05.548Z,7.88
2023-04-08T13:24:08.243Z,12.18
2023-04-08T13:26:10.901Z,7.50
2023-04-08T13:28:13.668Z,9.82
2023-04-08T13:30:16.684Z,10.70
2023-04-08T13:32:19.471Z,7.53
2023-04-08T13:34:22.268Z,9.50
2023-04-08T13:36:24.961Z,11.82
2023-04-08T13:38:27.638Z,6.78
2023-04-08T13:40:30.565Z,4.07
2023-04-08T13:42:33.251Z,5.97
2023-04-08T13:44:36.074Z,5.35
2023-04-08T13:46:39.782Z,7.13
2023-04-08T13:48:42.438Z,4.93
2023-04-08T13:50:45.203Z,5.53
2023-04-08T13:52:47.935Z,5.70
2023-04-08T13:54:50.637Z,7.35
2023-04-08T13:56:53.339Z,9.15
2023-04-08T13:58:57.331Z,9.35
2023-04-08T14:01:00.481Z,7.07
2023-04-08T14:03:03.244Z,9.35
2023-04-08T14:05:06.537Z,6.95
2023-04-08T14:07:09.409Z,11.02
2023-04-08T14:09:12.660Z,13.27
2023-04-08T14:11:15.522Z,9.18
2023-04-08T14:13:18.283Z,7.93
2023-04-08T14:15:21.151Z,6.35
2023-04-08T14:17:23.790Z,5.53
2023-04-08T14:19:26.582Z,4.88
2023-04-08T14:21:29.472Z,4.70
2023-04-08T14:23:32.148Z,7.18
2023-04-08T14:25:34.965Z,5.90
2023-04-08T14:27:47.562Z,6.80
2023-04-08T14:29:57.792Z,8.93
2023-04-08T14:32:00.525Z,16.27
2023-04-08T14:34:03.710Z,8.10
2023-04-08T14:36:06.825Z,9.75
2023-04-08T14:38:09.459Z,13.35
2023-04-08T14:40:12.475Z,11.82
2023-04-08T14:42:16.770Z,9.68
2023-04-08T14:44:19.399Z,10.50
2023-04-08T14:46:22.449Z,20.42
2023-04-08T14:48:26.540Z,7.18
2023-04-08T14:50:29.603Z,7.38
2023-04-08T14:52:32.180Z,10.52
2023-04-08T14:54:34.824Z,14.18
2023-04-08T14:56:37.438Z,6.20
2023-04-08T14:58:40.098Z,14.68
2023-04-08T15:00:46.385Z,9.32
2023-04-08T15:02:49.130Z,11.88
2023-04-08T15:04:51.776Z,5.97
2023-04-08T15:06:54.540Z,8.98
2023-04-08T15:08:57.696Z,8.20
2023-04-08T15:11:00.606Z,7.00
2023-04-08T15:13:03.323Z,7.85
2023-04-08T15:15:06.761Z,8.60
2023-04-08T15:17:10.422Z,8.70
2023-04-08T15:19:13.037Z,11.98
2023-04-08T15:21:15.822Z,8.27
2023-04-08T15:23:18.457Z,11.32
2023-04-08T15:25:21.284Z,22.52
2023-04-08T15:27:24.003Z,17.25
2023-04-08T15:29:26.639Z,12.52
2023-04-08T15:31:29.366Z,12.65
2023-04-08T15:33:33.492Z,14.32
2023-04-08T15:35:39.077Z,15.27
2023-04-08T15:37:42.123Z,13.55
2023-04-08T15:39:45.806Z,8.05
2023-04-08T15:41:48.585Z,9.45
2023-04-08T15:43:53.354Z,17.45
2023-04-08T15:45:55.999Z,11.73
2023-04-08T15:47:59.810Z,11.20
2023-04-08T15:50:02.496Z,8.75
2023-04-08T15:52:06.896Z,16.10
2023-04-08T15:54:09.517Z,12.50
2023-04-08T15:56:17.225Z,11.73
2023-04-08T15:58:19.908Z,15.07
2023-04-08T16:00:23.458Z,13.75
2023-04-08T16:02:26.604Z,21.17
2023-04-08T16:04:29.920Z,13.55
2023-04-08T16:06:33.514Z,12.52
2023-04-08T16:08:37.313Z,11.38
2023-04-08T16:10:39.995Z,16.10
2023-04-08T16:12:42.609Z,15.20
2023-04-08T16:14:46.584Z,12.75
2023-04-08T16:16:49.412Z,16.92
2023-04-08T16:18:52.866Z,14.43
2023-04-08T16:20:56.772Z,23.27
2023-04-08T16:22:59.490Z,13.32
2023-04-08T16:25:02.294Z,15.57
2023-04-08T16:27:06.921Z,22.90
2023-04-08T16:29:09.595Z,13.65
2023-04-08T16:31:12.304Z,15.93
2023-04-08T16:33:15.113Z,11.95
2023-04-08T16:35:20.670Z,16.15
2023-04-08T16:37:23.460Z,16.90
2023-04-08T16:39:26.437Z,15.20
2023-04-08T16:41:29.101Z,15.07
2023-04-08T16:43:32.136Z,16.50
2023-04-08T16:45:34.904Z,14.75
2023-04-08T16:47:39.538Z,17.45
2023-04-08T16:49:42.202Z,14.93
2023-04-08T16:51:44.926Z,11.90
2023-04-08T16:53:47.587Z,15.85
2023-04-08T16:55:50.221Z,13.43
2023-04-08T16:57:53.118Z,14.63
2023-04-08T16:59:55.945Z,17.08
2023-04-08T17:01:58.937Z,16.38
2023-04-08T17:04:01.875Z,13.18
2023-04-08T17:06:10.670Z,15.90
2023-04-08T17:08:13.621Z,17.10
2023-04-08T17:10:16.518Z,15.95
2023-04-08T17:12:19.277Z,16.05
2023-04-08T17:14:21.995Z,20.40
2023-04-08T17:16:24.610Z,16.20
2023-04-08T17:18:27.363Z,22.23
2023-04-08T17:20:30.104Z,18.70
2023-04-08T17:22:33.306Z,14.30
2023-04-08T17:24:36.140Z,19.38
2023-04-08T17:26:41.844Z,21.42
2023-04-08T17:28:45.036Z,15.60
2023-04-08T17:30:48.097Z,16.90
2023-04-08T17:32:52.915Z,15.90
2023-04-08T17:34:55.776Z,25.33
2023-04-08T17:36:58.552Z,21.80
2023-04-08T17:39:01.439Z,17.27
2023-04-08T17:41:04.643Z,17.38
2023-04-08T17:43:07.354Z,32.83
2023-04-08T17:45:10.514Z,14.98
2023-04-08T17:47:13.173Z,14.52
2023-04-08T17:49:15.850Z,20.02
2023-04-08T17:51:20.064Z,12.63
2023-04-08T17:53:22.718Z,13.75
2023-04-08T17:55:26.019Z,12.10
2023-04-08T17:57:28.783Z,16.13
2023-04-08T17:59:31.521Z,14.73
2023-04-08T18:01:34.939Z,13.55
2023-04-08T18:03:37.817Z,15.73
2023-04-08T18:05:40.939Z,18.13
2023-04-08T18:07:43.820Z,19.38
2023-04-08T18:09:49.286Z,14.43
2023-04-08T18:11:52.182Z,13.18
2023-04-08T18:13:56.532Z,16.30
2023-04-08T18:16:00.782Z,16.02
2023-04-08T18:18:03.927Z,18.08
2023-04-08T18:20:08.266Z,13.60
2023-04-08T18:22:11.423Z,15.55
2023-04-08T18:24:15.328Z,16.83
2023-04-08T18:26:30.056Z,14.65
2023-04-08T18:28:33.331Z,19.75
2023-04-08T18:30:36.440Z,15.25
2023-04-08T18:32:39.670Z,19.25
2023-04-08T18:34:44.048Z,20.30
2023-04-08T18:36:47.112Z,15.60
2023-04-08T18:38:49.832Z,16.45
2023-04-08T18:40:53.015Z,17.98
2023-04-08T18:42:55.854Z,12.50
2023-04-08T18:44:58.508Z,11.57
2023-04-08T18:47:01.279Z,14.65
2023-04-08T18:49:04.157Z,19.13
2023-04-08T18:51:06.862Z,16.27
2023-04-08T18:53:09.544Z,18.63
2023-04-08T18:55:12.278Z,16.15
2023-04-08T18:57:15.485Z,17.35
2023-04-08T18:59:18.281Z,14.85
2023-04-08T19:01:21.161Z,14.75
2023-04-08T19:03:24.311Z,17.77
2023-04-08T19:05:26.988Z,15.93
2023-04-08T19:07:29.615Z,20.75
2023-04-08T19:09:32.459Z,11.52
2023-04-08T19:11:35.326Z,12.85
2023-04-08T19:13:38.302Z,12.05
2023-04-08T19:15:41.018Z,18.17
2023-04-08T19:17:43.818Z,19.23
2023-04-08T19:19:46.624Z,15.68
2023-04-08T19:21:49.376Z,11.52
2023-04-08T19:23:52.400Z,14.25
2023-04-08T19:25:55.345Z,21.55
2023-04-08T19:27:58.143Z,15.25
2023-04-08T19:30:01.049Z,17.17
2023-04-08T19:32:05.733Z,22.42
2023-04-08T19:34:08.474Z,17.55
2023-04-08T19:36:11.970Z,17.25
2023-04-08T19:38:14.741Z,15.95
2023-04-08T19:40:18.533Z,16.80
2023-04-08T19:42:21.398Z,16.27
2023-04-08T19:44:24.145Z,16.00
2023-04-08T19:46:28.953Z,17.17
2023-04-08T19:48:32.914Z,11.60
2023-04-08T19:50:39.062Z,16.58
2023-04-08T19:52:41.830Z,15.00
2023-04-08T19:54:44.547Z,15.73
2023-04-08T19:56:47.564Z,20.80
2023-04-08T19:58:50.362Z,14.57
2023-04-08T20:00:53.647Z,19.27
2023-04-08T20:02:56.771Z,19.80
2023-04-08T20:04:59.563Z,16.00
2023-04-08T20:07:03.919Z,16.67
2023-04-08T20:09:06.569Z,15.32
2023-04-08T20:11:09.334Z,14.57
2023-04-08T20:13:12.261Z,20.63
2023-04-08T20:15:24.055Z,15.02
2023-04-08T20:17:28.274Z,18.65
2023-04-08T20:19:31.389Z,14.98
2023-04-08T20:21:34.080Z,16.38
2023-04-08T20:23:39.538Z,15.85
2023-04-08T20:25:42.717Z,15.68
2023-04-08T20:27:45.439Z,18.73
2023-04-08T20:29:48.117Z,11.35
2023-04-08T20:31:51.720Z,14.50
2023-04-08T20:33:54.606Z,14.80
2023-04-08T20:35:57.802Z,16.10
2023-04-08T20:38:00.608Z,19.25
2023-04-08T20:40:03.630Z,15.95
2023-04-08T20:42:06.922Z,16.10
2023-04-08T20:44:10.806Z,17.50
2023-04-08T20:46:13.541Z,17.83
2023-04-08T20:48:16.825Z,13.90
2023-04-08T20:50:20.117Z,14.63
2023-04-08T20:52:22.828Z,15.10
2023-04-08T20:54:26.162Z,22.20
2023-04-08T20:56:28.866Z,24.27
2023-04-08T20:58:31.503Z,20.20
2023-04-08T21:00:37.157Z,17.75
2023-04-08T21:02:40.633Z,21.60
2023-04-08T21:04:44.122Z,16.48
2023-04-08T21:06:48.814Z,19.92
2023-04-08T21:08:51.889Z,19.27
2023-04-08T21:10:54.850Z,17.45
2023-04-08T21:12:57.632Z,18.83
2023-04-08T21:15:00.394Z,18.88
2023-04-08T21:17:03.052Z,16.98
2023-04-08T21:19:05.900Z,19.33
2023-04-08T21:21:10.928Z,18.23
2023-04-08T21:23:14.013Z,17.25
2023-04-08T21:25:18.095Z,18.10
2023-04-08T21:27:20.822Z,21.05
2023-04-08T21:29:23.616Z,14.07
2023-04-08T21:31:27.103Z,18.70
2023-04-08T21:33:29.754Z,20.13
2023-04-08T21:35:33.206Z,17.17
2023-04-08T21:37:36.862Z,21.02
2023-04-08T21:39:39.567Z,18.38
2023-04-08T21:41:42.242Z,17.38
2023-04-08T21:43:44.885Z,17.90
2023-04-08T21:45:47.636Z,18.85
2023-04-08T21:47:50.890Z,21.17
2023-04-08T21:49:53.760Z,20.73
2023-04-08T21:51:56.653Z,17.60
2023-04-08T21:53:59.304Z,26.52
2023-04-08T21:56:01.980Z,19.38
2023-04-08T21:58:04.764Z,16.45
2023-04-08T22:00:13.182Z,14.18
2023-04-08T22:02:16.625Z,17.17
2023-04-08T22:04:19.829Z,18.73
2023-04-08T22:06:31.538Z,19.35
2023-04-08T22:08:35.515Z,23.35
2023-04-08T22:10:38.233Z,17.50
2023-04-08T22:12:41.067Z,18.13
2023-04-08T22:14:43.655Z,16.13
2023-04-08T22:16:46.454Z,19.40
2023-04-08T22:18:49.234Z,20.40
2023-04-08T22:20:51.933Z,15.75
2023-04-08T22:22:54.657Z,15.85
2023-04-08T22:24:57.260Z,18.85
2023-04-08T22:26:59.893Z,18.02
2023-04-08T22:29:02.553Z,22.15
2023-04-08T22:31:11.037Z,15.93
2023-04-08T22:33:13.850Z,20.05
2023-04-08T22:35:16.976Z,15.00
2023-04-08T22:37:21.985Z,20.58
2023-04-08T22:39:26.280Z,20.48
2023-04-08T22:41:28.995Z,18.88
2023-04-08T22:43:31.584Z,22.25
2023-04-08T22:45:34.256Z,21.50
2023-04-08T22:47:37.647Z,17.95
2023-04-08T22:49:42.807Z,21.63
2023-04-08T22:51:45.409Z,15.75
2023-04-08T22:53:48.109Z,15.38
2023-04-08T22:55:50.720Z,12.02
2023-04-08T22:57:53.364Z,14.38
2023-04-08T22:59:55.971Z,12.93
2023-04-08T23:01:58.736Z,17.52
2023-04-08T23:04:01.439Z,16.13
2023-04-08T23:06:04.218Z,15.60
2023-04-08T23:08:06.984Z,10.88
2023-04-08T23:10:10.255Z,11.75
2023-04-08T23:12:16.014Z,12.82
2023-04-08T23:14:18.700Z,9.98
2023-04-08T23:16:21.885Z,12.18
2023-04-08T23:18:24.893Z,8.73
2023-04-08T23:20:27.653Z,8.07
2023-04-08T23:22:30.335Z,7.57
2023-04-08T23:24:34.255Z,13.07
2023-04-08T23:26:36.838Z,9.35
2023-04-08T23:28:39.408Z,14.90
2023-04-08T23:30:42.143Z,13.45
2023-04-08T23:32:44.820Z,13.10
2023-04-08T23:34:47.404Z,12.52
2023-04-08T23:36:50.050Z,10.13
2023-04-08T23:38:52.992Z,11.23
2023-04-08T23:40:55.894Z,12.65
2023-04-08T23:42:58.482Z,14.20
2023-04-08T23:45:01.172Z,8.80
2023-04-08T23:47:05.506Z,8.20
2023-04-08T23:49:08.114Z,9.07
2023-04-08T23:51:11.971Z,8.02
2023-04-08T23:53:14.584Z,8.20
2023-04-08T23:55:17.525Z,7.05
2023-04-08T23:57:23.096Z,16.38
2023-04-08T23:59:25.827Z,7.80
